Time;durP1;ratioP1;P1;durP2;ratioP2;P2;SDS_P1;SDS_P2;PMS_P1;PMS_P2;Temp;Humidity;BMP_temperature;BMP_pressure;BME280_temperature;BME280_humidity;BME280_pressure;Samples;Min_cycle;Max_cycle;Signal;HPM_P1;HPM_P2
2020/09/19 00:00:46;;;;;;;5.3;2.9;;;;;;;;;;;;;
2020/09/19 00:03:11;;;;;;;3.6;2.6;;;;;;;;;;;;;
2020/09/19 00:05:36;;;;;;;3.8;2.8;;;;;;;;;;;;;
2020/09/19 00:08:02;;;;;;;4.2;2.8;;;;;;;;;;;;;
2020/09/19 00:10:29;;;;;;;4.3;2.9;;;;;;;;;;;;;
2020/09/19 00:12:54;;;;;;;4.2;2.6;;;;;;;;;;;;;
2020/09/19 00:15:21;;;;;;;4.9;3;;;;;;;;;;;;;
2020/09/19 00:17:45;;;;;;;3.6;2.6;;;;;;;;;;;;;
2020/09/19 00:20:11;;;;;;;6.1;3.1;;;;;;;;;;;;;
2020/09/19 00:22:36;;;;;;;4.3;2.9;;;;;;;;;;;;;
2020/09/19 00:25:01;;;;;;;5.9;2.9;;;;;;;;;;;;;
2020/09/19 00:27:26;;;;;;;4.9;3.1;;;;;;;;;;;;;
2020/09/19 00:29:52;;;;;;;4.2;2.8;;;;;;;;;;;;;
2020/09/19 00:32:17;;;;;;;5.9;3.2;;;;;;;;;;;;;
2020/09/19 00:34:44;;;;;;;5;3.3;;;;;;;;;;;;;
2020/09/19 00:37:09;;;;;;;4.7;2.9;;;;;;;;;;;;;
2020/09/19 00:39:34;;;;;;;4.3;3;;;;;;;;;;;;;
2020/09/19 00:41:59;;;;;;;4.3;3;;;;;;;;;;;;;
2020/09/19 00:44:25;;;;;;;3.9;2.6;;;;;;;;;;;;;
2020/09/19 00:46:50;;;;;;;4.9;3.1;;;;;;;;;;;;;
2020/09/19 00:49:17;;;;;;;5.9;2.8;;;;;;;;;;;;;
2020/09/19 00:51:41;;;;;;;6.1;3.2;;;;;;;;;;;;;
2020/09/19 00:54:07;;;;;;;3.8;2.8;;;;;;;;;;;;;
2020/09/19 00:56:32;;;;;;;5.4;3.1;;;;;;;;;;;;;
2020/09/19 00:58:57;;;;;;;4.3;2.3;;;;;;;;;;;;;
2020/09/19 01:01:22;;;;;;;5.4;2.9;;;;;;;;;;;;;
2020/09/19 01:03:47;;;;;;;3.8;2.9;;;;;;;;;;;;;
2020/09/19 01:06:12;;;;;;;4.5;2.9;;;;;;;;;;;;;
2020/09/19 01:08:37;;;;;;;3.7;3;;;;;;;;;;;;;
2020/09/19 01:11:03;;;;;;;3.8;2.7;;;;;;;;;;;;;
2020/09/19 01:13:28;;;;;;;5.7;2.9;;;;;;;;;;;;;
2020/09/19 01:15:53;;;;;;;5.4;2.8;;;;;;;;;;;;;
2020/09/19 01:18:18;;;;;;;4.3;3.1;;;;;;;;;;;;;
2020/09/19 01:20:43;;;;;;;6.1;2.8;;;;;;;;;;;;;
2020/09/19 01:23:08;;;;;;;5.1;2.7;;;;;;;;;;;;;
2020/09/19 01:25:33;;;;;;;5.5;3.1;;;;;;;;;;;;;
2020/09/19 01:27:59;;;;;;;5.5;2.6;;;;;;;;;;;;;
2020/09/19 01:30:26;;;;;;;3.1;2.6;;;;;;;;;;;;;
2020/09/19 01:32:51;;;;;;;3.3;2.7;;;;;;;;;;;;;
2020/09/19 01:35:16;;;;;;;7.4;3.4;;;;;;;;;;;;;
2020/09/19 01:37:41;;;;;;;4.2;3;;;;;;;;;;;;;
2020/09/19 01:40:07;;;;;;;5.3;3.1;;;;;;;;;;;;;
2020/09/19 01:42:32;;;;;;;4.7;3.1;;;;;;;;;;;;;
2020/09/19 01:44:58;;;;;;;6.4;3;;;;;;;;;;;;;
2020/09/19 01:47:23;;;;;;;7.4;2.9;;;;;;;;;;;;;
2020/09/19 01:49:49;;;;;;;4;3;;;;;;;;;;;;;
2020/09/19 01:52:14;;;;;;;4.9;3.3;;;;;;;;;;;;;
2020/09/19 01:54:39;;;;;;;6.3;2.8;;;;;;;;;;;;;
2020/09/19 01:57:05;;;;;;;13.2;3.2;;;;;;;;;;;;;
2020/09/19 01:59:30;;;;;;;4.7;2.7;;;;;;;;;;;;;
2020/09/19 02:01:56;;;;;;;5;3;;;;;;;;;;;;;
2020/09/19 02:04:21;;;;;;;8.9;3.2;;;;;;;;;;;;;
2020/09/19 02:06:47;;;;;;;5.3;2.8;;;;;;;;;;;;;
2020/09/19 02:09:12;;;;;;;4.7;2.6;;;;;;;;;;;;;
2020/09/19 02:11:38;;;;;;;4.7;2.8;;;;;;;;;;;;;
2020/09/19 02:14:03;;;;;;;4.7;3;;;;;;;;;;;;;
2020/09/19 02:16:30;;;;;;;4.8;2.8;;;;;;;;;;;;;
2020/09/19 02:18:55;;;;;;;5.1;2.7;;;;;;;;;;;;;
2020/09/19 02:21:21;;;;;;;4.5;2.5;;;;;;;;;;;;;
2020/09/19 02:23:46;;;;;;;2.9;2.4;;;;;;;;;;;;;
2020/09/19 02:26:12;;;;;;;4.1;2.6;;;;;;;;;;;;;
2020/09/19 02:28:37;;;;;;;7.5;3.1;;;;;;;;;;;;;
2020/09/19 02:31:04;;;;;;;3.3;2.5;;;;;;;;;;;;;
2020/09/19 02:33:28;;;;;;;5.1;3.1;;;;;;;;;;;;;
2020/09/19 02:35:54;;;;;;;4.7;3.1;;;;;;;;;;;;;
2020/09/19 02:38:20;;;;;;;5.5;3.2;;;;;;;;;;;;;
2020/09/19 02:40:46;;;;;;;5.3;3;;;;;;;;;;;;;
2020/09/19 02:43:11;;;;;;;4.2;2.3;;;;;;;;;;;;;
2020/09/19 02:45:38;;;;;;;3.7;2.5;;;;;;;;;;;;;
2020/09/19 02:48:03;;;;;;;4.9;3.2;;;;;;;;;;;;;
2020/09/19 02:50:28;;;;;;;6.2;2.8;;;;;;;;;;;;;
2020/09/19 02:52:53;;;;;;;4.9;3;;;;;;;;;;;;;
2020/09/19 02:55:19;;;;;;;4.2;2.4;;;;;;;;;;;;;
2020/09/19 02:57:44;;;;;;;3.4;2.4;;;;;;;;;;;;;
2020/09/19 03:00:11;;;;;;;3.6;2.9;;;;;;;;;;;;;
2020/09/19 03:02:36;;;;;;;4.8;2.5;;;;;;;;;;;;;
2020/09/19 03:05:02;;;;;;;3.3;2.5;;;;;;;;;;;;;
2020/09/19 03:07:27;;;;;;;3.8;2.4;;;;;;;;;;;;;
2020/09/19 03:09:53;;;;;;;5;2.8;;;;;;;;;;;;;
2020/09/19 03:12:18;;;;;;;2.1;1.8;;;;;;;;;;;;;
2020/09/19 03:14:43;;;;;;;2.6;2.1;;;;;;;;;;;;;
2020/09/19 03:17:09;;;;;;;3.3;2.3;;;;;;;;;;;;;
2020/09/19 03:19:34;;;;;;;5.4;3.3;;;;;;;;;;;;;
2020/09/19 03:21:59;;;;;;;3.3;2.5;;;;;;;;;;;;;
2020/09/19 03:24:24;;;;;;;8.9;3.8;;;;;;;;;;;;;
2020/09/19 03:26:49;;;;;;;6.5;3.5;;;;;;;;;;;;;
2020/09/19 03:29:14;;;;;;;5.5;3.3;;;;;;;;;;;;;
2020/09/19 03:31:41;;;;;;;5.7;3.1;;;;;;;;;;;;;
2020/09/19 03:34:06;;;;;;;4.8;3.1;;;;;;;;;;;;;
2020/09/19 03:36:32;;;;;;;4.4;2.8;;;;;;;;;;;;;
2020/09/19 03:38:56;;;;;;;5.1;2.9;;;;;;;;;;;;;
2020/09/19 03:41:23;;;;;;;4;2.2;;;;;;;;;;;;;
2020/09/19 03:43:48;;;;;;;5.3;3.4;;;;;;;;;;;;;
2020/09/19 03:46:15;;;;;;;4.3;2.7;;;;;;;;;;;;;
2020/09/19 03:48:40;;;;;;;4.3;3;;;;;;;;;;;;;
2020/09/19 03:51:05;;;;;;;4.9;2.7;;;;;;;;;;;;;
2020/09/19 03:53:30;;;;;;;3.9;2.3;;;;;;;;;;;;;
2020/09/19 03:55:57;;;;;;;5.4;2.9;;;;;;;;;;;;;
2020/09/19 03:58:22;;;;;;;3.9;2.7;;;;;;;;;;;;;
2020/09/19 04:02:30;;;;;;;5.2;2.8;;;;;;;13.82;87.43262;940.153;;;;
2020/09/19 04:04:57;;;;;;;3.7;2.5;;;;;;;13.91;86.81641;940.1747;;;;
2020/09/19 04:07:22;;;;;;;4.6;2.6;;;;;;;13.94;85.16699;940.2227;;;;
2020/09/19 04:09:50;;;;;;;3.8;2.4;;;;;;;13.83;85.41016;940.2106;;;;
2020/09/19 04:12:15;;;;;;;2.7;2.3;;;;;;;13.9;84.82422;940.2242;;;;
2020/09/19 04:14:40;;;;;;;5.2;2.5;;;;;;;;;;;;;
2020/09/19 04:17:05;;;;;;;3.5;2.6;;;;;;;;;;;;;
2020/09/19 04:19:30;;;;;;;3.9;2.3;;;;;;;;;;;;;
2020/09/19 04:21:55;;;;;;;3.9;2.5;;;;;;;;;;;;;
2020/09/19 04:24:20;;;;;;;4.8;2.8;;;;;;;;;;;;;
2020/09/19 04:26:45;;;;;;;4.4;2.6;;;;;;;;;;;;;
2020/09/19 04:29:10;;;;;;;4.6;2.6;;;;;;;;;;;;;
2020/09/19 04:31:36;;;;;;;4.6;2.8;;;;;;;;;;;;;
2020/09/19 04:34:01;;;;;;;3.9;2.7;;;;;;;;;;;;;
2020/09/19 04:36:26;;;;;;;2.9;2.2;;;;;;;;;;;;;
2020/09/19 04:38:52;;;;;;;6;2.9;;;;;;;;;;;;;
2020/09/19 04:41:17;;;;;;;4.2;2.8;;;;;;;;;;;;;
2020/09/19 04:43:42;;;;;;;4.5;2.4;;;;;;;;;;;;;
2020/09/19 04:46:08;;;;;;;3.1;2.2;;;;;;;;;;;;;
2020/09/19 04:48:33;;;;;;;3.2;2.6;;;;;;;;;;;;;
2020/09/19 04:50:58;;;;;;;4.9;2.6;;;;;;;;;;;;;
2020/09/19 04:53:23;;;;;;;5.5;2.4;;;;;;;;;;;;;
2020/09/19 04:55:48;;;;;;;4.2;2.2;;;;;;;;;;;;;
2020/09/19 04:58:13;;;;;;;3.3;2.2;;;;;;;;;;;;;
2020/09/19 05:00:40;;;;;;;2.9;2.2;;;;;;;;;;;;;
2020/09/19 05:03:04;;;;;;;3.3;2.4;;;;;;;;;;;;;
2020/09/19 05:05:30;;;;;;;10.2;2.5;;;;;;;;;;;;;
2020/09/19 05:07:55;;;;;;;5.7;2.8;;;;;;;;;;;;;
2020/09/19 05:10:22;;;;;;;4.9;3.3;;;;;;;;;;;;;
2020/09/19 05:12:47;;;;;;;8.6;4.6;;;;;;;;;;;;;
2020/09/19 05:15:13;;;;;;;8.2;4.2;;;;;;;;;;;;;
2020/09/19 05:17:38;;;;;;;7.5;4.4;;;;;;;;;;;;;
2020/09/19 05:20:03;;;;;;;6;4.1;;;;;;;;;;;;;
2020/09/19 05:22:29;;;;;;;6.4;3.6;;;;;;;;;;;;;
2020/09/19 05:24:53;;;;;;;6;3.2;;;;;;;;;;;;;
2020/09/19 05:27:18;;;;;;;6.3;3.1;;;;;;;;;;;;;
2020/09/19 05:29:43;;;;;;;3.1;2.2;;;;;;;;;;;;;
2020/09/19 05:32:08;;;;;;;3.1;2.5;;;;;;;;;;;;;
2020/09/19 05:34:33;;;;;;;5.5;3.4;;;;;;;;;;;;;
2020/09/19 05:36:58;;;;;;;9.6;4.9;;;;;;;;;;;;;
2020/09/19 05:39:24;;;;;;;12.6;3.7;;;;;;;;;;;;;
2020/09/19 05:41:49;;;;;;;5.6;3.1;;;;;;;;;;;;;
2020/09/19 05:44:15;;;;;;;5.3;3;;;;;;;;;;;;;
2020/09/19 05:46:40;;;;;;;5.3;3.2;;;;;;;;;;;;;
2020/09/19 05:49:06;;;;;;;3.5;2.3;;;;;;;;;;;;;
2020/09/19 05:51:31;;;;;;;7.4;3.1;;;;;;;;;;;;;
2020/09/19 05:53:57;;;;;;;3.6;2.6;;;;;;;;;;;;;
2020/09/19 05:56:22;;;;;;;4.4;2.7;;;;;;;;;;;;;
2020/09/19 05:58:47;;;;;;;9.2;4;;;;;;;;;;;;;
2020/09/19 06:01:12;;;;;;;4.5;3.1;;;;;;;;;;;;;
2020/09/19 06:03:37;;;;;;;16.4;3.5;;;;;;;;;;;;;
2020/09/19 06:06:03;;;;;;;5.4;3.3;;;;;;;;;;;;;
2020/09/19 06:08:28;;;;;;;4.3;2.8;;;;;;;;;;;;;
2020/09/19 06:10:56;;;;;;;3.7;2.7;;;;;;;;;;;;;
2020/09/19 06:13:22;;;;;;;3.6;2.7;;;;;;;;;;;;;
2020/09/19 06:15:47;;;;;;;4.1;2.3;;;;;;;;;;;;;
2020/09/19 06:18:12;;;;;;;4.4;3.1;;;;;;;;;;;;;
2020/09/19 06:20:38;;;;;;;4.9;3.3;;;;;;;;;;;;;
2020/09/19 06:23:03;;;;;;;4.5;2.6;;;;;;;;;;;;;
2020/09/19 06:25:28;;;;;;;4.4;2.6;;;;;;;;;;;;;
2020/09/19 06:27:53;;;;;;;3.8;2.2;;;;;;;;;;;;;
2020/09/19 06:30:23;;;;;;;4.9;2.5;;;;;;;;;;;;;
2020/09/19 06:32:50;;;;;;;3.6;2.4;;;;;;;;;;;;;
2020/09/19 06:35:15;;;;;;;3.9;2.5;;;;;;;;;;;;;
2020/09/19 06:37:40;;;;;;;3;2.1;;;;;;;;;;;;;
2020/09/19 06:40:09;;;;;;;3.6;2.4;;;;;;;;;;;;;
2020/09/19 06:42:35;;;;;;;4.3;2.5;;;;;;;;;;;;;
2020/09/19 06:45:00;;;;;;;3.4;2.3;;;;;;;;;;;;;
2020/09/19 06:47:26;;;;;;;2.6;2.3;;;;;;;;;;;;;
2020/09/19 06:49:51;;;;;;;3.5;2.2;;;;;;;;;;;;;
2020/09/19 06:52:17;;;;;;;3.2;2.2;;;;;;;;;;;;;
2020/09/19 06:54:42;;;;;;;3;1.9;;;;;;;;;;;;;
2020/09/19 06:57:09;;;;;;;4.9;2.4;;;;;;;;;;;;;
2020/09/19 06:59:33;;;;;;;3.2;2.2;;;;;;;;;;;;;
2020/09/19 07:02:00;;;;;;;3.5;2.1;;;;;;;;;;;;;
2020/09/19 07:04:25;;;;;;;2.8;1.9;;;;;;;;;;;;;
2020/09/19 07:06:50;;;;;;;3.5;2;;;;;;;;;;;;;
2020/09/19 07:09:15;;;;;;;2.7;2.2;;;;;;;;;;;;;
2020/09/19 07:11:42;;;;;;;5.3;2.7;;;;;;;;;;;;;
2020/09/19 07:14:07;;;;;;;3.4;2;;;;;;;;;;;;;
2020/09/19 07:16:33;;;;;;;3.7;2.4;;;;;;;;;;;;;
2020/09/19 07:18:59;;;;;;;5;2.7;;;;;;;;;;;;;
2020/09/19 07:21:24;;;;;;;5.4;2.4;;;;;;;;;;;;;
2020/09/19 07:23:49;;;;;;;2;1.8;;;;;;;;;;;;;
2020/09/19 07:26:15;;;;;;;3.1;1.8;;;;;;;;;;;;;
2020/09/19 07:28:40;;;;;;;2.5;1.6;;;;;;;;;;;;;
2020/09/19 07:31:07;;;;;;;2.3;1.8;;;;;;;;;;;;;
2020/09/19 07:33:31;;;;;;;3.6;1.7;;;;;;;;;;;;;
2020/09/19 07:35:58;;;;;;;1.7;1.1;;;;;;;;;;;;;
2020/09/19 07:38:23;;;;;;;2.1;1.6;;;;;;;;;;;;;
2020/09/19 07:41:05;;;;;;;3.8;1.7;;;;;;;;;;;;;
2020/09/19 07:43:18;;;;;;;2.1;1.3;;;;;;;;;;;;;
2020/09/19 07:45:44;;;;;;;1.9;1.5;;;;;;;;;;;;;
2020/09/19 07:48:09;;;;;;;3.3;1.3;;;;;;;;;;;;;
2020/09/19 07:50:34;;;;;;;2.1;1.4;;;;;;;;;;;;;
2020/09/19 07:53:00;;;;;;;3.9;1.9;;;;;;;;;;;;;
2020/09/19 07:55:26;;;;;;;2.5;2;;;;;;;;;;;;;
2020/09/19 07:57:51;;;;;;;2;1.2;;;;;;;;;;;;;
2020/09/19 08:00:16;;;;;;;2.2;1.4;;;;;;;;;;;;;
2020/09/19 08:02:42;;;;;;;2;1.2;;;;;;;;;;;;;
2020/09/19 08:05:07;;;;;;;2.3;1.2;;;;;;;;;;;;;
2020/09/19 08:07:33;;;;;;;2.2;1.4;;;;;;;;;;;;;
2020/09/19 08:09:58;;;;;;;4.3;1.5;;;;;;;;;;;;;
2020/09/19 08:12:24;;;;;;;1.5;1.2;;;;;;;;;;;;;
2020/09/19 08:14:49;;;;;;;2.2;1.3;;;;;;;;;;;;;
2020/09/19 08:17:15;;;;;;;1.5;1.4;;;;;;;;;;;;;
2020/09/19 08:19:41;;;;;;;3;1.5;;;;;;;;;;;;;
2020/09/19 08:22:06;;;;;;;2;1.1;;;;;;;;;;;;;
2020/09/19 08:24:31;;;;;;;2.4;1.2;;;;;;;;;;;;;
2020/09/19 08:26:56;;;;;;;1.5;1;;;;;;;;;;;;;
2020/09/19 08:29:21;;;;;;;2.7;1.4;;;;;;;;;;;;;
2020/09/19 08:31:46;;;;;;;2.3;1.2;;;;;;;;;;;;;
2020/09/19 08:34:12;;;;;;;1;0.9;;;;;;;;;;;;;
2020/09/19 08:36:37;;;;;;;1.3;1;;;;;;;;;;;;;
2020/09/19 08:39:03;;;;;;;2;1.1;;;;;;;;;;;;;
2020/09/19 08:41:28;;;;;;;2.1;1.2;;;;;;;;;;;;;
2020/09/19 08:43:54;;;;;;;1.8;1.2;;;;;;;;;;;;;
2020/09/19 08:46:19;;;;;;;2.2;1.2;;;;;;;;;;;;;
2020/09/19 08:48:45;;;;;;;1.9;1;;;;;;;;;;;;;
2020/09/19 08:51:10;;;;;;;2.7;1.1;;;;;;;;;;;;;
2020/09/19 08:53:36;;;;;;;1.1;0.8;;;;;;;;;;;;;
2020/09/19 08:56:01;;;;;;;1.7;1;;;;;;;;;;;;;
2020/09/19 08:58:27;;;;;;;2.4;1.2;;;;;;;;;;;;;
2020/09/19 09:00:52;;;;;;;1.5;1.1;;;;;;;;;;;;;
2020/09/19 09:03:18;;;;;;;2;1;;;;;;;;;;;;;
2020/09/19 09:05:44;;;;;;;1.7;1;;;;;;;;;;;;;
2020/09/19 09:08:10;;;;;;;1.2;1;;;;;;;;;;;;;
2020/09/19 09:10:35;;;;;;;1.4;0.9;;;;;;;;;;;;;
2020/09/19 09:13:01;;;;;;;1.1;0.9;;;;;;;;;;;;;
2020/09/19 09:15:26;;;;;;;1.1;0.9;;;;;;;;;;;;;
2020/09/19 09:17:52;;;;;;;1.6;0.9;;;;;;;;;;;;;
2020/09/19 09:20:17;;;;;;;1.4;0.9;;;;;;;;;;;;;
2020/09/19 09:22:44;;;;;;;2.3;1.1;;;;;;;;;;;;;
2020/09/19 09:25:09;;;;;;;3.3;1;;;;;;;;;;;;;
2020/09/19 09:27:33;;;;;;;0.9;0.8;;;;;;;;;;;;;
2020/09/19 09:29:58;;;;;;;2.4;1.4;;;;;;;;;;;;;
2020/09/19 09:32:23;;;;;;;1.4;1.2;;;;;;;;;;;;;
2020/09/19 09:34:50;;;;;;;3.1;1.4;;;;;;;;;;;;;
2020/09/19 09:37:15;;;;;;;1.1;0.9;;;;;;;;;;;;;
2020/09/19 09:39:41;;;;;;;2.1;1.2;;;;;;;;;;;;;
2020/09/19 09:42:06;;;;;;;10.1;1.7;;;;;;;;;;;;;
2020/09/19 09:44:32;;;;;;;1.5;1.1;;;;;;;;;;;;;
2020/09/19 09:46:57;;;;;;;1.8;1;;;;;;;;;;;;;
2020/09/19 09:49:24;;;;;;;1.6;1.2;;;;;;;;;;;;;
2020/09/19 09:51:49;;;;;;;2.5;1.1;;;;;;;;;;;;;
2020/09/19 09:54:14;;;;;;;1.9;1.3;;;;;;;;;;;;;
2020/09/19 09:56:39;;;;;;;3.4;1.3;;;;;;;;;;;;;
2020/09/19 09:59:06;;;;;;;2.3;1.4;;;;;;;;;;;;;
2020/09/19 10:01:31;;;;;;;3.1;1.5;;;;;;;;;;;;;
2020/09/19 10:03:57;;;;;;;2;1.2;;;;;;;;;;;;;
2020/09/19 10:06:22;;;;;;;2.6;1;;;;;;;;;;;;;
2020/09/19 10:08:48;;;;;;;2.3;1.3;;;;;;;;;;;;;
2020/09/19 10:11:13;;;;;;;14.2;6.6;;;;;;;;;;;;;
2020/09/19 10:13:39;;;;;;;1.7;1;;;;;;;;;;;;;
2020/09/19 10:16:04;;;;;;;1.8;1;;;;;;;;;;;;;
2020/09/19 10:18:29;;;;;;;2.6;1.4;;;;;;;;;;;;;
2020/09/19 10:20:54;;;;;;;7.9;2.8;;;;;;;;;;;;;
2020/09/19 10:23:19;;;;;;;3.4;1.8;;;;;;;;;;;;;
2020/09/19 10:25:44;;;;;;;6.4;2;;;;;;;;;;;;;
2020/09/19 10:28:09;;;;;;;3.4;1.9;;;;;;;;;;;;;
2020/09/19 10:30:35;;;;;;;3.3;2.2;;;;;;;;;;;;;
2020/09/19 10:33:00;;;;;;;6.7;2.1;;;;;;;;;;;;;
2020/09/19 10:35:25;;;;;;;1.9;1.4;;;;;;;;;;;;;
2020/09/19 10:37:51;;;;;;;1.3;1.1;;;;;;;;;;;;;
2020/09/19 10:40:16;;;;;;;2.2;1;;;;;;;;;;;;;
2020/09/19 10:42:41;;;;;;;1.2;0.9;;;;;;;;;;;;;
2020/09/19 10:45:06;;;;;;;1.8;0.9;;;;;;;;;;;;;
2020/09/19 10:47:32;;;;;;;1.7;1.1;;;;;;;;;;;;;
2020/09/19 10:49:57;;;;;;;2.9;1.8;;;;;;;;;;;;;
2020/09/19 10:52:22;;;;;;;1.9;1.2;;;;;;;;;;;;;
2020/09/19 10:54:47;;;;;;;1.9;1.1;;;;;;;;;;;;;
2020/09/19 10:57:13;;;;;;;4.3;1.2;;;;;;;;;;;;;
2020/09/19 10:59:38;;;;;;;1.2;0.7;;;;;;;;;;;;;
2020/09/19 11:02:05;;;;;;;2.3;1.6;;;;;;;;;;;;;
2020/09/19 11:04:30;;;;;;;7.9;1.2;;;;;;;;;;;;;
2020/09/19 11:06:56;;;;;;;2.5;1.2;;;;;;;;;;;;;
2020/09/19 11:09:21;;;;;;;3.4;1;;;;;;;;;;;;;
2020/09/19 11:11:47;;;;;;;1.4;1.1;;;;;;;;;;;;;
2020/09/19 11:14:12;;;;;;;2.5;1.3;;;;;;;;;;;;;
2020/09/19 11:16:39;;;;;;;2;1.4;;;;;;;;;;;;;
2020/09/19 11:19:04;;;;;;;1.3;1.1;;;;;;;;;;;;;
2020/09/19 11:21:30;;;;;;;1.8;1.2;;;;;;;;;;;;;
2020/09/19 11:23:55;;;;;;;1.8;1.2;;;;;;;;;;;;;
2020/09/19 11:26:21;;;;;;;1.4;1.2;;;;;;;;;;;;;
2020/09/19 11:28:47;;;;;;;1.3;1;;;;;;;;;;;;;
2020/09/19 11:31:11;;;;;;;2.9;1.1;;;;;;;;;;;;;
2020/09/19 11:33:36;;;;;;;4;1.3;;;;;;;;;;;;;
2020/09/19 11:36:01;;;;;;;3.5;1.4;;;;;;;;;;;;;
2020/09/19 11:38:26;;;;;;;2.1;1;;;;;;;;;;;;;
2020/09/19 11:40:51;;;;;;;1.5;0.9;;;;;;;;;;;;;
2020/09/19 11:43:17;;;;;;;1.9;1.4;;;;;;;;;;;;;
2020/09/19 11:45:41;;;;;;;3;1.2;;;;;;;;;;;;;
2020/09/19 11:48:08;;;;;;;3.1;1.5;;;;;;;;;;;;;
2020/09/19 11:50:33;;;;;;;1.3;1.1;;;;;;;;;;;;;
2020/09/19 11:52:59;;;;;;;2.7;1.4;;;;;;;;;;;;;
2020/09/19 11:55:24;;;;;;;2.2;1.4;;;;;;;;;;;;;
2020/09/19 11:57:50;;;;;;;2.2;1.7;;;;;;;;;;;;;
2020/09/19 12:00:16;;;;;;;2.5;1.5;;;;;;;;;;;;;
2020/09/19 12:02:41;;;;;;;3.5;1.4;;;;;;;;;;;;;
2020/09/19 12:05:06;;;;;;;2.1;1.6;;;;;;;;;;;;;
2020/09/19 12:07:33;;;;;;;2.4;1.7;;;;;;;;;;;;;
2020/09/19 12:09:58;;;;;;;1.6;1.3;;;;;;;;;;;;;
2020/09/19 12:12:24;;;;;;;2.2;1.4;;;;;;;;;;;;;
2020/09/19 12:14:50;;;;;;;3.2;1.7;;;;;;;;;;;;;
2020/09/19 12:17:16;;;;;;;2.7;2;;;;;;;;;;;;;
2020/09/19 12:19:41;;;;;;;1.8;1.4;;;;;;;;;;;;;
2020/09/19 12:22:07;;;;;;;1.7;1.4;;;;;;;;;;;;;
2020/09/19 12:24:32;;;;;;;3.3;1.3;;;;;;;;;;;;;
2020/09/19 12:26:59;;;;;;;2.4;1.7;;;;;;;;;;;;;
2020/09/19 12:29:23;;;;;;;2;1.1;;;;;;;;;;;;;
2020/09/19 12:31:48;;;;;;;2.8;1.6;;;;;;;;;;;;;
2020/09/19 12:34:13;;;;;;;3.6;1.9;;;;;;;;;;;;;
2020/09/19 12:36:38;;;;;;;1.5;1.3;;;;;;;;;;;;;
2020/09/19 12:39:04;;;;;;;3.1;1.7;;;;;;;;;;;;;
2020/09/19 12:41:29;;;;;;;10.3;1.8;;;;;;;;;;;;;
2020/09/19 12:43:54;;;;;;;2.8;1.8;;;;;;;;;;;;;
2020/09/19 12:46:19;;;;;;;1.8;1.2;;;;;;;;;;;;;
2020/09/19 12:48:45;;;;;;;2.4;1.5;;;;;;;;;;;;;
2020/09/19 12:51:10;;;;;;;2.5;1.4;;;;;;;;;;;;;
2020/09/19 12:53:38;;;;;;;2.6;1.4;;;;;;;;;;;;;
2020/09/19 12:56:01;;;;;;;1.7;1.2;;;;;;;;;;;;;
2020/09/19 12:58:26;;;;;;;2.8;1.2;;;;;;;;;;;;;
2020/09/19 13:00:51;;;;;;;2.3;1.5;;;;;;;;;;;;;
2020/09/19 13:03:17;;;;;;;2.8;1.3;;;;;;;;;;;;;
2020/09/19 13:05:44;;;;;;;2.5;1.5;;;;;;;;;;;;;
2020/09/19 13:08:09;;;;;;;2;1.3;;;;;;;;;;;;;
2020/09/19 13:10:35;;;;;;;2.6;1.6;;;;;;;;;;;;;
2020/09/19 13:13:00;;;;;;;2.4;1.5;;;;;;;;;;;;;
2020/09/19 13:15:27;;;;;;;1.9;1.3;;;;;;;;;;;;;
2020/09/19 13:17:52;;;;;;;3;1.3;;;;;;;;;;;;;
2020/09/19 13:20:18;;;;;;;2.1;1.4;;;;;;;;;;;;;
2020/09/19 13:22:43;;;;;;;1.8;1.2;;;;;;;;;;;;;
2020/09/19 13:25:08;;;;;;;2.5;1.1;;;;;;;;;;;;;
2020/09/19 13:27:33;;;;;;;2.8;1.5;;;;;;;;;;;;;
2020/09/19 13:29:58;;;;;;;2.6;1.4;;;;;;;;;;;;;
2020/09/19 13:32:23;;;;;;;2.6;1.5;;;;;;;;;;;;;
2020/09/19 13:34:49;;;;;;;1.8;1.3;;;;;;;;;;;;;
2020/09/19 13:37:14;;;;;;;1.8;1.1;;;;;;;;;;;;;
2020/09/19 13:39:39;;;;;;;2.2;1.8;;;;;;;;;;;;;
2020/09/19 13:42:06;;;;;;;1.9;1.4;;;;;;;;;;;;;
2020/09/19 13:44:30;;;;;;;1.3;1.2;;;;;;;;;;;;;
2020/09/19 13:46:56;;;;;;;1.6;1.4;;;;;;;;;;;;;
2020/09/19 13:49:21;;;;;;;2.3;1.3;;;;;;;;;;;;;
2020/09/19 13:51:46;;;;;;;2.1;1.4;;;;;;;;;;;;;
2020/09/19 13:54:11;;;;;;;2.4;1.2;;;;;;;;;;;;;
2020/09/19 13:56:36;;;;;;;1.5;1.1;;;;;;;;;;;;;
2020/09/19 13:59:01;;;;;;;2.1;1.2;;;;;;;;;;;;;
2020/09/19 14:01:28;;;;;;;1.7;1.3;;;;;;;;;;;;;
2020/09/19 14:03:53;;;;;;;3.3;1.2;;;;;;;;;;;;;
2020/09/19 14:06:19;;;;;;;1.5;1.3;;;;;;;;;;;;;
2020/09/19 14:08:44;;;;;;;2.1;1.1;;;;;;;;;;;;;
2020/09/19 14:11:10;;;;;;;4.7;1.4;;;;;;;;;;;;;
2020/09/19 14:13:35;;;;;;;3.9;1.9;;;;;;;;;;;;;
2020/09/19 14:16:01;;;;;;;12.6;2.5;;;;;;;;;;;;;
2020/09/19 14:18:26;;;;;;;3.3;1.5;;;;;;;;;;;;;
2020/09/19 14:20:52;;;;;;;2.2;1.5;;;;;;;;;;;;;
2020/09/19 14:23:17;;;;;;;1.8;1.4;;;;;;;;;;;;;
2020/09/19 14:25:42;;;;;;;2.6;1.3;;;;;;;;;;;;;
2020/09/19 14:28:07;;;;;;;2.5;1.6;;;;;;;;;;;;;
2020/09/19 14:30:32;;;;;;;4.6;1.6;;;;;;;;;;;;;
2020/09/19 14:32:59;;;;;;;2.3;1.5;;;;;;;;;;;;;
2020/09/19 14:35:24;;;;;;;1.8;1.3;;;;;;;;;;;;;
2020/09/19 14:37:49;;;;;;;2;1.4;;;;;;;;;;;;;
2020/09/19 14:40:15;;;;;;;1.7;1.3;;;;;;;;;;;;;
2020/09/19 14:42:40;;;;;;;2.4;1.4;;;;;;;;;;;;;
2020/09/19 14:45:06;;;;;;;9.7;1.9;;;;;;;;;;;;;
2020/09/19 14:47:31;;;;;;;4.8;1.6;;;;;;;;;;;;;
2020/09/19 14:49:56;;;;;;;2.9;1.4;;;;;;;;;;;;;
2020/09/19 14:52:23;;;;;;;2.9;1.6;;;;;;;;;;;;;
2020/09/19 14:54:48;;;;;;;1.5;1.3;;;;;;;;;;;;;
2020/09/19 14:57:14;;;;;;;2.7;1.8;;;;;;;;;;;;;
2020/09/19 14:59:39;;;;;;;2;1.8;;;;;;;;;;;;;
2020/09/19 15:02:05;;;;;;;2.5;1.6;;;;;;;;;;;;;
2020/09/19 15:04:30;;;;;;;3.2;1.6;;;;;;;;;;;;;
2020/09/19 15:06:57;;;;;;;3.4;1.6;;;;;;;;;;;;;
2020/09/19 15:09:22;;;;;;;3.6;1.8;;;;;;;;;;;;;
2020/09/19 15:11:47;;;;;;;1.8;1.6;;;;;;;;;;;;;
2020/09/19 15:14:13;;;;;;;3.4;1.8;;;;;;;;;;;;;
2020/09/19 15:16:41;;;;;;;4.3;1.7;;;;;;;;;;;;;
2020/09/19 15:19:05;;;;;;;2.3;1.3;;;;;;;;;;;;;
2020/09/19 15:21:31;;;;;;;2.4;1.5;;;;;;;;;;;;;
2020/09/19 15:23:55;;;;;;;3.4;1.6;;;;;;;;;;;;;
2020/09/19 15:26:21;;;;;;;3.4;1.4;;;;;;;;;;;;;
2020/09/19 15:28:46;;;;;;;3.2;1.6;;;;;;;;;;;;;
2020/09/19 15:31:14;;;;;;;2.2;1.7;;;;;;;;;;;;;
2020/09/19 15:33:39;;;;;;;3.2;1.7;;;;;;;;;;;;;
2020/09/19 15:36:06;;;;;;;3;1.7;;;;;;;;;;;;;
2020/09/19 15:38:31;;;;;;;3.3;1.9;;;;;;;;;;;;;
2020/09/19 15:40:55;;;;;;;2.7;1.7;;;;;;;;;;;;;
2020/09/19 15:43:21;;;;;;;2.2;1.7;;;;;;;;;;;;;
2020/09/19 15:45:49;;;;;;;9.9;1.9;;;;;;;;;;;;;
2020/09/19 15:48:15;;;;;;;2.8;1.9;;;;;;;;;;;;;
2020/09/19 15:50:43;;;;;;;3.1;2;;;;;;;;;;;;;
2020/09/19 15:53:08;;;;;;;3;1.5;;;;;;;;;;;;;
2020/09/19 15:55:33;;;;;;;3.5;1.7;;;;;;;;;;;;;
2020/09/19 15:57:58;;;;;;;3;1.8;;;;;;;;;;;;;
2020/09/19 16:00:28;;;;;;;2.6;1.5;;;;;;;;;;;;;
2020/09/19 16:02:55;;;;;;;2.8;1.6;;;;;;;;;;;;;
2020/09/19 16:05:19;;;;;;;1.7;1.2;;;;;;;;;;;;;
2020/09/19 16:07:45;;;;;;;3.2;1.9;;;;;;;;;;;;;
2020/09/19 16:10:11;;;;;;;2.1;1.6;;;;;;;;;;;;;
2020/09/19 16:12:37;;;;;;;3.9;1.9;;;;;;;;;;;;;
2020/09/19 16:15:02;;;;;;;2.2;1.6;;;;;;;;;;;;;
2020/09/19 16:17:28;;;;;;;2.4;1.6;;;;;;;;;;;;;
2020/09/19 16:19:53;;;;;;;2.2;1.7;;;;;;;;;;;;;
2020/09/19 16:22:20;;;;;;;2.8;1.6;;;;;;;;;;;;;
2020/09/19 16:24:45;;;;;;;2.9;1.5;;;;;;;;;;;;;
2020/09/19 16:27:10;;;;;;;3.3;1.4;;;;;;;;;;;;;
2020/09/19 16:29:36;;;;;;;4.8;1.9;;;;;;;;;;;;;
2020/09/19 16:32:02;;;;;;;3;1.7;;;;;;;;;;;;;
2020/09/19 16:34:27;;;;;;;3.7;2.1;;;;;;;;;;;;;
2020/09/19 16:36:55;;;;;;;1.7;1.3;;;;;;;;;;;;;
2020/09/19 16:39:20;;;;;;;4.5;1.7;;;;;;;;;;;;;
2020/09/19 16:41:45;;;;;;;2.2;1.6;;;;;;;;;;;;;
2020/09/19 16:44:10;;;;;;;2.4;1.5;;;;;;;;;;;;;
2020/09/19 16:46:36;;;;;;;2.5;1.8;;;;;;;;;;;;;
2020/09/19 16:49:01;;;;;;;2.2;1.7;;;;;;;;;;;;;
2020/09/19 16:51:27;;;;;;;3.8;1.9;;;;;;;;;;;;;
2020/09/19 16:53:52;;;;;;;5.4;2;;;;;;;;;;;;;
2020/09/19 16:56:18;;;;;;;1.5;1.2;;;;;;;;;;;;;
2020/09/19 16:58:43;;;;;;;3.7;1.7;;;;;;;;;;;;;
2020/09/19 17:01:10;;;;;;;4.3;2.1;;;;;;;;;;;;;
2020/09/19 17:03:35;;;;;;;3.1;1.6;;;;;;;;;;;;;
2020/09/19 17:06:00;;;;;;;3;1.7;;;;;;;;;;;;;
2020/09/19 17:08:25;;;;;;;2.6;1.5;;;;;;;;;;;;;
2020/09/19 17:10:51;;;;;;;3;1.8;;;;;;;;;;;;;
2020/09/19 17:13:17;;;;;;;3.9;1.8;;;;;;;;;;;;;
2020/09/19 17:15:42;;;;;;;2.5;1.6;;;;;;;;;;;;;
2020/09/19 17:18:07;;;;;;;5.9;1.8;;;;;;;;;;;;;
2020/09/19 17:20:32;;;;;;;4.6;2;;;;;;;;;;;;;
2020/09/19 17:22:58;;;;;;;3.1;1.6;;;;;;;;;;;;;
2020/09/19 17:25:23;;;;;;;2.3;1.3;;;;;;;;;;;;;
2020/09/19 17:27:50;;;;;;;2.9;1.9;;;;;;;;;;;;;
2020/09/19 17:30:15;;;;;;;2.4;1.8;;;;;;;;;;;;;
2020/09/19 17:32:41;;;;;;;3.5;1.6;;;;;;;;;;;;;
2020/09/19 17:35:06;;;;;;;4.5;2.1;;;;;;;;;;;;;
2020/09/19 17:37:33;;;;;;;2.5;1.5;;;;;;;;;;;;;
2020/09/19 17:39:59;;;;;;;3.4;1.4;;;;;;;;;;;;;
2020/09/19 17:42:24;;;;;;;4.2;2.1;;;;;;;;;;;;;
2020/09/19 17:44:50;;;;;;;1.8;1.5;;;;;;;;;;;;;
2020/09/19 17:47:16;;;;;;;4.8;2.1;;;;;;;;;;;;;
2020/09/19 17:49:41;;;;;;;4.5;2;;;;;;;;;;;;;
2020/09/19 17:52:06;;;;;;;3.3;1.9;;;;;;;;;;;;;
2020/09/19 17:54:34;;;;;;;3.5;1.9;;;;;;;;;;;;;
2020/09/19 17:56:57;;;;;;;6.8;1.7;;;;;;;;;;;;;
2020/09/19 17:59:22;;;;;;;3.8;1.9;;;;;;;;;;;;;
2020/09/19 18:01:49;;;;;;;4;2;;;;;;;;;;;;;
2020/09/19 18:04:14;;;;;;;3.1;2;;;;;;;;;;;;;
2020/09/19 18:06:40;;;;;;;2.8;1.7;;;;;;;;;;;;;
2020/09/19 18:09:05;;;;;;;3.3;1.8;;;;;;;;;;;;;
2020/09/19 18:11:31;;;;;;;3.7;2.8;;;;;;;;;;;;;
2020/09/19 18:13:56;;;;;;;5.6;1.9;;;;;;;;;;;;;
2020/09/19 18:16:22;;;;;;;3.4;2.2;;;;;;;;;;;;;
2020/09/19 18:18:47;;;;;;;4.7;2.1;;;;;;;;;;;;;
2020/09/19 18:21:14;;;;;;;4.1;2.2;;;;;;;;;;;;;
2020/09/19 18:23:39;;;;;;;3;1.7;;;;;;;;;;;;;
2020/09/19 18:26:05;;;;;;;6.5;2.1;;;;;;;;;;;;;
2020/09/19 18:28:30;;;;;;;2.1;1.7;;;;;;;;;;;;;
2020/09/19 18:30:57;;;;;;;2.8;1.9;;;;;;;;;;;;;
2020/09/19 18:33:22;;;;;;;7.4;2.5;;;;;;;;;;;;;
2020/09/19 18:35:48;;;;;;;3.5;2.1;;;;;;;;;;;;;
2020/09/19 18:38:13;;;;;;;2.9;2;;;;;;;;;;;;;
2020/09/19 18:40:42;;;;;;;3.2;2.1;;;;;;;;;;;;;
2020/09/19 18:43:06;;;;;;;4.7;2.1;;;;;;;;;;;;;
2020/09/19 18:45:32;;;;;;;6;2.7;;;;;;;;;;;;;
2020/09/19 18:47:56;;;;;;;2.5;1.9;;;;;;;;;;;;;
2020/09/19 18:50:22;;;;;;;3.5;2.1;;;;;;;;;;;;;
2020/09/19 18:52:47;;;;;;;2.5;2;;;;;;;;;;;;;
2020/09/19 18:55:16;;;;;;;4.6;2.1;;;;;;;;;;;;;
2020/09/19 18:57:41;;;;;;;2.7;2.2;;;;;;;;;;;;;
2020/09/19 19:00:08;;;;;;;5.4;2.3;;;;;;;;;;;;;
2020/09/19 19:02:33;;;;;;;6.8;2.7;;;;;;;;;;;;;
2020/09/19 19:04:58;;;;;;;3.9;2.2;;;;;;;;;;;;;
2020/09/19 19:07:23;;;;;;;2.3;1.8;;;;;;;;;;;;;
2020/09/19 19:09:49;;;;;;;3.2;2.1;;;;;;;;;;;;;
2020/09/19 19:12:14;;;;;;;4.4;2.6;;;;;;;;;;;;;
2020/09/19 19:14:42;;;;;;;4.8;2.4;;;;;;;;;;;;;
2020/09/19 19:17:06;;;;;;;4.6;2.5;;;;;;;;;;;;;
2020/09/19 19:19:32;;;;;;;2.6;2.1;;;;;;;;;;;;;
2020/09/19 19:21:58;;;;;;;4.8;2.6;;;;;;;;;;;;;
2020/09/19 19:24:23;;;;;;;2.7;2;;;;;;;;;;;;;
2020/09/19 19:26:48;;;;;;;2.4;2;;;;;;;;;;;;;
2020/09/19 19:29:14;;;;;;;3.8;2.2;;;;;;;;;;;;;
2020/09/19 19:31:39;;;;;;;3.8;2.2;;;;;;;;;;;;;
2020/09/19 19:34:05;;;;;;;2.6;2.2;;;;;;;;;;;;;
2020/09/19 19:36:30;;;;;;;2.4;1.6;;;;;;;;;;;;;
2020/09/19 19:38:57;;;;;;;2.4;2;;;;;;;;;;;;;
2020/09/19 19:41:22;;;;;;;5.4;2.9;;;;;;;;;;;;;
2020/09/19 19:43:48;;;;;;;4.4;2.9;;;;;;;;;;;;;
2020/09/19 19:46:13;;;;;;;6;3.2;;;;;;;;;;;;;
2020/09/19 19:48:40;;;;;;;3.9;2.9;;;;;;;;;;;;;
2020/09/19 19:51:05;;;;;;;5.7;2.8;;;;;;;;;;;;;
2020/09/19 19:53:31;;;;;;;7.9;3.3;;;;;;;;;;;;;
2020/09/19 19:55:56;;;;;;;4.2;3.2;;;;;;;;;;;;;
2020/09/19 19:58:22;;;;;;;3.8;2.5;;;;;;;;;;;;;
2020/09/19 20:00:47;;;;;;;3.9;2.4;;;;;;;;;;;;;
2020/09/19 20:03:13;;;;;;;5.8;2.7;;;;;;;;;;;;;
2020/09/19 20:05:38;;;;;;;7.6;2.7;;;;;;;;;;;;;
2020/09/19 20:08:05;;;;;;;5;2.8;;;;;;;;;;;;;
2020/09/19 20:10:29;;;;;;;3.9;2.3;;;;;;;;;;;;;
2020/09/19 20:12:56;;;;;;;3.3;2.4;;;;;;;;;;;;;
2020/09/19 20:15:21;;;;;;;2.7;2;;;;;;;;;;;;;
2020/09/19 20:17:47;;;;;;;3.4;2.1;;;;;;;;;;;;;
2020/09/19 20:20:12;;;;;;;5.9;2.2;;;;;;;;;;;;;
2020/09/19 20:22:38;;;;;;;4.3;2.5;;;;;;;;;;;;;
2020/09/19 20:25:03;;;;;;;3.2;2.2;;;;;;;;;;;;;
2020/09/19 20:27:30;;;;;;;3.8;2.1;;;;;;;;;;;;;
2020/09/19 20:29:55;;;;;;;2.4;2;;;;;;;;;;;;;